createdAt,value
2022-07-29T00:01:03.832Z,4.45
2022-07-29T00:03:30.710Z,4.38
2022-07-29T00:05:57.662Z,5.37
2022-07-29T00:08:24.514Z,5.03
2022-07-29T00:10:52.071Z,5.35
2022-07-29T00:13:18.931Z,5.07
2022-07-29T00:16:04.486Z,4.80
2022-07-29T00:18:32.837Z,5.13
2022-07-29T00:20:59.810Z,5.53
2022-07-29T00:23:26.615Z,6.22
2022-07-29T00:25:53.459Z,5.60
2022-07-29T00:28:20.224Z,5.32
2022-07-29T00:30:47.051Z,5.90
2022-07-29T00:33:13.817Z,5.93
2022-07-29T00:35:47.183Z,5.82
2022-07-29T00:38:16.063Z,5.68
2022-07-29T00:40:44.519Z,5.95
2022-07-29T00:43:12.704Z,5.90
2022-07-29T00:45:39.661Z,6.00
2022-07-29T00:48:07.607Z,6.60
2022-07-29T00:50:34.488Z,6.30
2022-07-29T00:53:02.102Z,6.50
2022-07-29T00:55:29.930Z,6.50
2022-07-29T00:57:58.071Z,6.15
2022-07-29T01:00:26.814Z,6.88
2022-07-29T01:02:53.724Z,6.50
2022-07-29T01:05:49.699Z,6.28
2022-07-29T01:08:15.119Z,6.33
2022-07-29T01:10:43.201Z,5.93
2022-07-29T01:13:10.470Z,6.32
2022-07-29T01:15:49.227Z,6.38
2022-07-29T01:18:22.678Z,6.45
2022-07-29T01:21:24.820Z,6.57
2022-07-29T01:24:02.532Z,5.53
2022-07-29T01:26:34.137Z,6.13
2022-07-29T01:29:00.840Z,6.50
2022-07-29T01:31:58.449Z,6.22
2022-07-29T01:34:49.546Z,5.70
2022-07-29T01:37:24.944Z,6.20
2022-07-29T01:39:55.168Z,5.93
2022-07-29T01:42:25.044Z,6.53
2022-07-29T01:44:58.022Z,5.75
2022-07-29T01:47:32.423Z,6.23
2022-07-29T01:50:06.898Z,5.90
2022-07-29T01:52:48.368Z,6.10
2022-07-29T01:55:17.467Z,6.28
2022-07-29T01:57:46.635Z,6.22
2022-07-29T02:00:14.424Z,6.43
2022-07-29T02:02:45.259Z,6.68
2022-07-29T02:05:17.122Z,6.88
2022-07-29T02:07:45.406Z,6.45
2022-07-29T02:10:13.583Z,6.75
2022-07-29T02:12:41.764Z,6.57
2022-07-29T02:15:10.810Z,7.03
2022-07-29T02:17:52.110Z,7.18
2022-07-29T02:20:20.232Z,6.55
2022-07-29T02:22:48.246Z,6.25
2022-07-29T02:25:16.663Z,7.03
2022-07-29T02:27:45.407Z,6.55
2022-07-29T02:30:13.909Z,6.78
2022-07-29T02:32:43.025Z,6.40
2022-07-29T02:35:11.028Z,6.63
2022-07-29T02:37:39.054Z,6.60
2022-07-29T02:40:09.428Z,6.57
2022-07-29T02:42:38.469Z,6.70
2022-07-29T02:45:07.254Z,6.90
2022-07-29T02:47:44.768Z,6.68
2022-07-29T02:50:35.606Z,6.63
2022-07-29T02:53:08.215Z,7.13
2022-07-29T02:55:41.183Z,7.82
2022-07-29T02:58:22.073Z,6.78
2022-07-29T03:00:51.641Z,6.30
2022-07-29T03:03:19.950Z,7.30
2022-07-29T03:05:46.824Z,6.18
2022-07-29T03:08:15.792Z,6.60
2022-07-29T03:10:46.556Z,6.68
2022-07-29T03:13:14.298Z,6.80
2022-07-29T03:15:45.105Z,6.70
2022-07-29T03:18:12.551Z,7.65
2022-07-29T03:20:40.655Z,6.85
2022-07-29T03:23:09.149Z,7.18
2022-07-29T03:25:36.204Z,7.15
2022-07-29T03:28:03.994Z,7.23
2022-07-29T03:30:31.712Z,6.78
2022-07-29T03:32:59.106Z,7.28
2022-07-29T03:35:26.038Z,7.05
2022-07-29T03:37:52.852Z,7.35
2022-07-29T03:40:26.930Z,6.60
2022-07-29T03:42:56.558Z,7.72
2022-07-29T03:45:24.227Z,8.07
2022-07-29T03:48:00.402Z,8.40
2022-07-29T03:50:29.678Z,7.85
2022-07-29T03:52:56.545Z,7.37
2022-07-29T03:55:23.404Z,7.43
2022-07-29T03:57:51.658Z,7.25
2022-07-29T04:00:19.045Z,7.70
2022-07-29T04:02:49.245Z,7.45
2022-07-29T04:05:16.758Z,6.83
2022-07-29T04:07:48.223Z,7.57
2022-07-29T04:10:30.182Z,6.85
2022-07-29T04:12:59.653Z,7.40
2022-07-29T04:15:26.892Z,7.10
2022-07-29T04:17:58.911Z,7.17
2022-07-29T04:20:25.734Z,7.00
2022-07-29T04:22:52.524Z,7.60
2022-07-29T04:25:19.385Z,7.30
2022-07-29T04:28:01.336Z,7.47
2022-07-29T04:30:29.135Z,7.33
2022-07-29T04:32:55.983Z,7.50
2022-07-29T04:35:23.288Z,6.75
2022-07-29T04:37:50.095Z,7.50
2022-07-29T04:40:16.992Z,7.30
2022-07-29T04:42:46.315Z,7.00
2022-07-29T04:45:13.911Z,8.05
2022-07-29T04:47:41.210Z,8.10
2022-07-29T04:50:09.787Z,7.43
2022-07-29T04:52:36.640Z,7.20
2022-07-29T04:55:04.967Z,7.33
2022-07-29T04:57:31.869Z,8.00
2022-07-29T04:59:58.694Z,8.32
2022-07-29T05:02:25.568Z,7.70
2022-07-29T05:04:52.431Z,7.57
2022-07-29T05:07:19.431Z,8.03
2022-07-29T05:09:46.200Z,7.22
2022-07-29T05:12:13.081Z,7.90
2022-07-29T05:14:39.923Z,7.10
2022-07-29T05:17:06.813Z,7.30
2022-07-29T05:19:33.652Z,6.70
2022-07-29T05:22:06.768Z,7.35
2022-07-29T05:24:33.647Z,7.35
2022-07-29T05:27:00.472Z,7.32
2022-07-29T05:29:44.892Z,7.63
2022-07-29T05:32:13.738Z,7.60
2022-07-29T05:34:50.772Z,7.22
2022-07-29T05:37:22.335Z,7.32
2022-07-29T05:39:56.241Z,7.00
2022-07-29T05:42:25.549Z,7.10
2022-07-29T05:44:53.291Z,6.53
2022-07-29T05:47:20.175Z,6.80
2022-07-29T05:49:47.152Z,6.75
2022-07-29T05:52:14.504Z,7.43
2022-07-29T05:54:41.552Z,7.25
2022-07-29T05:57:08.452Z,7.20
2022-07-29T06:03:47.341Z,7.97
2022-07-29T06:06:14.127Z,7.57
2022-07-29T06:08:41.362Z,8.23
2022-07-29T06:11:09.584Z,7.57
2022-07-29T06:13:36.519Z,7.72
2022-07-29T06:16:03.506Z,7.20
2022-07-29T06:18:30.299Z,7.90
2022-07-29T06:20:57.284Z,7.80
2022-07-29T06:23:24.018Z,7.43
2022-07-29T06:25:50.791Z,8.48
2022-07-29T06:28:17.589Z,8.00
2022-07-29T06:30:44.399Z,8.00
2022-07-29T06:33:17.490Z,7.72
2022-07-29T06:35:53.667Z,7.60
2022-07-29T06:38:30.240Z,7.55
2022-07-29T06:41:03.720Z,7.45
2022-07-29T06:43:50.488Z,7.70
2022-07-29T06:46:18.749Z,7.30
2022-07-29T06:48:48.577Z,8.03
2022-07-29T06:51:15.530Z,7.97
2022-07-29T06:54:00.071Z,7.97
2022-07-29T06:56:31.797Z,7.70
2022-07-29T06:58:58.924Z,7.47
2022-07-29T07:01:25.793Z,7.33
2022-07-29T07:03:52.670Z,7.78
2022-07-29T07:06:19.389Z,7.65
2022-07-29T07:08:46.277Z,7.25
2022-07-29T07:11:13.271Z,7.43
2022-07-29T07:13:40.027Z,7.90
2022-07-29T07:16:06.904Z,7.32
2022-07-29T07:18:34.169Z,7.15
2022-07-29T07:21:01.825Z,7.47
2022-07-29T07:23:28.602Z,7.80
2022-07-29T07:25:55.510Z,7.90
2022-07-29T07:28:24.635Z,7.32
2022-07-29T07:30:52.795Z,7.90
2022-07-29T07:33:19.926Z,7.88
2022-07-29T07:35:47.406Z,8.13
2022-07-29T07:38:14.796Z,8.20
2022-07-29T07:40:42.573Z,7.75
2022-07-29T07:43:09.481Z,7.95
2022-07-29T07:45:38.353Z,7.55
2022-07-29T07:48:06.330Z,8.43
2022-07-29T07:50:33.243Z,7.70
2022-07-29T07:53:00.644Z,8.20
2022-07-29T07:55:27.619Z,7.82
2022-07-29T07:57:55.770Z,7.88
2022-07-29T08:00:23.842Z,8.25
2022-07-29T08:02:51.755Z,8.40
2022-07-29T08:05:19.121Z,8.00
2022-07-29T08:07:47.363Z,8.30
2022-07-29T08:10:16.326Z,8.40
2022-07-29T08:12:44.588Z,8.25
2022-07-29T08:15:11.486Z,7.63
2022-07-29T08:17:38.319Z,8.20
2022-07-29T08:20:05.659Z,7.95
2022-07-29T08:22:32.521Z,8.35
2022-07-29T08:24:59.331Z,8.70
2022-07-29T08:27:43.123Z,7.63
2022-07-29T08:30:11.479Z,8.70
2022-07-29T08:32:55.005Z,8.00
2022-07-29T08:35:24.339Z,7.95
2022-07-29T08:37:52.121Z,8.43
2022-07-29T08:40:21.445Z,8.40
2022-07-29T08:43:04.771Z,7.97
2022-07-29T08:45:48.228Z,8.25
2022-07-29T08:48:25.760Z,8.13
2022-07-29T08:50:57.574Z,7.85
2022-07-29T08:53:27.688Z,8.60
2022-07-29T08:55:55.618Z,7.90
2022-07-29T08:58:24.757Z,8.38
2022-07-29T09:00:55.297Z,8.13
2022-07-29T09:03:25.968Z,7.28
2022-07-29T09:05:53.349Z,8.43
2022-07-29T09:08:21.083Z,7.40
2022-07-29T09:10:48.516Z,7.65
2022-07-29T09:13:15.268Z,8.57
2022-07-29T09:15:42.175Z,7.60
2022-07-29T09:18:30.211Z,8.13
2022-07-29T09:21:14.624Z,7.68
2022-07-29T09:23:42.690Z,8.35
2022-07-29T09:26:09.560Z,7.90
2022-07-29T09:28:43.115Z,7.93
2022-07-29T09:31:10.136Z,8.07
2022-07-29T09:33:40.056Z,7.60
2022-07-29T09:36:09.033Z,8.40
2022-07-29T09:38:38.379Z,8.30
2022-07-29T09:41:06.928Z,8.30
2022-07-29T09:43:34.819Z,8.13
2022-07-29T09:46:14.841Z,8.18
2022-07-29T09:48:41.879Z,7.80
2022-07-29T09:51:25.420Z,7.75
2022-07-29T09:53:53.786Z,7.75
2022-07-29T09:56:20.654Z,6.80
2022-07-29T09:58:47.446Z,6.32
2022-07-29T10:01:15.135Z,6.88
2022-07-29T10:03:54.134Z,6.93
2022-07-29T10:06:20.950Z,6.90
2022-07-29T10:08:47.859Z,6.53
2022-07-29T10:11:18.911Z,6.13
2022-07-29T10:13:47.877Z,5.30
2022-07-29T10:16:16.566Z,5.60
2022-07-29T10:18:44.822Z,5.75
2022-07-29T10:21:22.612Z,5.00
2022-07-29T10:24:01.547Z,4.53
2022-07-29T10:26:30.521Z,5.20
2022-07-29T10:28:57.339Z,5.03
2022-07-29T10:31:34.644Z,5.00
2022-07-29T10:34:11.775Z,4.27
2022-07-29T10:36:52.321Z,4.65
2022-07-29T10:39:49.772Z,5.07
2022-07-29T10:42:29.560Z,6.05
2022-07-29T10:45:00.805Z,5.10
2022-07-29T10:47:28.411Z,5.20
2022-07-29T10:50:04.136Z,4.68
2022-07-29T10:52:59.533Z,4.60
2022-07-29T10:55:37.717Z,4.78
2022-07-29T10:58:19.556Z,5.50
2022-07-29T11:00:49.513Z,5.07
2022-07-29T11:03:52.261Z,4.93
2022-07-29T11:06:26.773Z,4.75
2022-07-29T11:09:34.943Z,4.75
2022-07-29T11:12:25.288Z,4.72
2022-07-29T11:14:53.431Z,4.57
2022-07-29T11:17:20.524Z,4.43
2022-07-29T11:19:52.020Z,4.60
2022-07-29T11:22:36.040Z,4.80
2022-07-29T11:25:42.422Z,4.07
2022-07-29T11:28:22.996Z,4.27
2022-07-29T11:30:53.663Z,4.90
2022-07-29T11:33:54.021Z,4.55
2022-07-29T11:36:28.136Z,4.22
2022-07-29T11:39:36.351Z,4.43
2022-07-29T11:42:30.467Z,4.27
2022-07-29T11:45:41.809Z,4.68
2022-07-29T11:48:27.706Z,4.80
2022-07-29T11:50:48.298Z,4.35
2022-07-29T11:53:16.141Z,4.28
2022-07-29T11:55:51.829Z,3.77
2022-07-29T11:58:29.372Z,4.47
2022-07-29T12:00:57.746Z,4.38
2022-07-29T12:03:35.334Z,4.93
2022-07-29T12:06:17.594Z,4.70
2022-07-29T12:08:45.888Z,5.37
2022-07-29T12:11:22.737Z,4.65
2022-07-29T12:13:53.668Z,4.72
2022-07-29T12:16:25.437Z,4.90
2022-07-29T12:19:00.814Z,5.03
2022-07-29T12:21:31.026Z,4.60
2022-07-29T12:24:02.099Z,4.20
2022-07-29T12:26:34.090Z,4.75
2022-07-29T12:29:03.214Z,4.60
2022-07-29T12:31:43.661Z,4.32
2022-07-29T12:34:14.007Z,4.17
2022-07-29T12:36:42.821Z,4.18
2022-07-29T12:39:11.105Z,4.00
2022-07-29T12:41:38.372Z,4.13
2022-07-29T12:44:05.458Z,4.20
2022-07-29T12:46:32.560Z,4.03
2022-07-29T12:48:59.702Z,3.70
2022-07-29T12:51:35.261Z,2.85
2022-07-29T12:54:09.393Z,3.33
2022-07-29T12:56:44.800Z,3.78
2022-07-29T12:59:14.511Z,4.17
2022-07-29T13:01:41.371Z,4.15
2022-07-29T13:04:08.304Z,4.03
2022-07-29T13:06:46.152Z,4.00
2022-07-29T13:09:23.351Z,5.15
2022-07-29T13:11:53.435Z,4.63
2022-07-29T13:14:34.593Z,4.53
2022-07-29T13:17:08.864Z,4.40
2022-07-29T13:19:38.267Z,4.40
2022-07-29T13:22:05.594Z,4.30
2022-07-29T13:24:32.368Z,4.07
2022-07-29T13:26:59.272Z,4.60
2022-07-29T13:29:31.358Z,3.85
2022-07-29T13:31:59.226Z,4.15
2022-07-29T13:34:26.290Z,3.97
2022-07-29T13:36:53.111Z,3.77
2022-07-29T13:39:19.886Z,3.38
2022-07-29T13:41:46.730Z,3.88
2022-07-29T13:44:13.496Z,4.30
2022-07-29T13:46:40.654Z,3.92
2022-07-29T13:49:07.533Z,3.87
2022-07-29T13:51:34.443Z,3.50
2022-07-29T13:54:01.220Z,4.25
2022-07-29T13:56:29.594Z,3.80
2022-07-29T13:58:56.490Z,3.50
2022-07-29T14:01:23.253Z,3.73
2022-07-29T14:03:50.254Z,3.50
2022-07-29T14:06:16.972Z,3.40
2022-07-29T14:08:45.126Z,4.30
2022-07-29T14:11:12.010Z,4.40
2022-07-29T14:13:38.808Z,3.80
2022-07-29T14:16:07.991Z,3.47
2022-07-29T14:18:34.916Z,3.60
2022-07-29T14:21:01.816Z,3.65
2022-07-29T14:23:28.696Z,3.88
2022-07-29T14:25:55.589Z,3.93
2022-07-29T14:28:22.915Z,4.10
2022-07-29T14:30:49.620Z,3.97
2022-07-29T14:33:16.396Z,3.78
2022-07-29T14:35:43.326Z,3.60
2022-07-29T14:38:10.354Z,4.50
2022-07-29T14:40:37.492Z,3.63
2022-07-29T14:43:04.271Z,3.60
2022-07-29T14:45:31.321Z,3.47
2022-07-29T14:47:58.291Z,3.20
2022-07-29T14:50:31.781Z,3.30
2022-07-29T14:53:00.121Z,3.40
2022-07-29T14:55:27.432Z,3.28
2022-07-29T14:58:03.074Z,3.05
2022-07-29T15:00:34.933Z,3.35
2022-07-29T15:03:03.076Z,3.33
2022-07-29T15:05:31.060Z,3.17
2022-07-29T15:07:58.260Z,3.40
2022-07-29T15:10:25.290Z,3.50
2022-07-29T15:12:54.784Z,3.80
2022-07-29T15:15:21.903Z,3.30
2022-07-29T15:17:48.730Z,3.65
2022-07-29T15:20:15.767Z,3.53
2022-07-29T15:22:43.936Z,3.90
2022-07-29T15:25:11.193Z,3.78
2022-07-29T15:27:38.034Z,4.33
2022-07-29T15:30:05.387Z,3.92
2022-07-29T15:32:32.259Z,4.05
2022-07-29T15:34:59.072Z,3.88
2022-07-29T15:37:25.915Z,3.72
2022-07-29T15:39:55.965Z,3.83
2022-07-29T15:42:25.178Z,4.10
2022-07-29T15:44:52.077Z,3.70
2022-07-29T15:47:18.865Z,3.47
2022-07-29T15:49:49.356Z,4.40
2022-07-29T15:52:25.701Z,4.07
2022-07-29T15:54:57.615Z,3.92
2022-07-29T15:57:25.399Z,4.13
2022-07-29T15:59:52.575Z,4.10
2022-07-29T16:02:19.425Z,4.03
2022-07-29T16:04:46.679Z,3.90
2022-07-29T16:07:14.257Z,3.72
2022-07-29T16:09:42.398Z,4.05
2022-07-29T16:12:10.594Z,3.75
2022-07-29T16:14:44.143Z,3.97
2022-07-29T16:17:14.870Z,3.93
2022-07-29T16:19:46.060Z,3.97
2022-07-29T16:22:13.511Z,4.55
2022-07-29T16:24:41.174Z,4.10
2022-07-29T16:27:08.686Z,4.50
2022-07-29T16:29:37.471Z,4.57
2022-07-29T16:32:06.034Z,4.40
2022-07-29T16:34:33.583Z,4.50
2022-07-29T16:37:00.867Z,4.80
2022-07-29T16:39:27.775Z,4.70
2022-07-29T16:41:59.525Z,4.80
2022-07-29T16:44:27.214Z,4.43
2022-07-29T16:46:56.099Z,4.97
2022-07-29T16:49:26.971Z,4.93
2022-07-29T16:51:53.977Z,5.15
2022-07-29T16:54:20.862Z,4.73
2022-07-29T16:56:47.694Z,4.72
2022-07-29T16:59:14.532Z,4.45
2022-07-29T17:01:41.368Z,5.35
2022-07-29T17:04:09.340Z,4.90
2022-07-29T17:06:40.481Z,4.80
2022-07-29T17:09:08.889Z,4.90
2022-07-29T17:11:53.568Z,5.63
2022-07-29T17:14:31.131Z,5.60
2022-07-29T17:17:03.033Z,5.25
2022-07-29T17:19:32.454Z,4.90
2022-07-29T17:22:12.905Z,5.03
2022-07-29T17:24:43.231Z,4.97
2022-07-29T17:27:11.144Z,5.00
2022-07-29T17:29:39.248Z,5.38
2022-07-29T17:32:07.826Z,4.70
2022-07-29T17:34:39.575Z,4.97
2022-07-29T17:37:08.036Z,5.13
2022-07-29T17:39:35.691Z,5.22
2022-07-29T17:42:03.822Z,4.72
2022-07-29T17:44:30.627Z,5.13
2022-07-29T17:46:57.761Z,4.60
2022-07-29T17:49:24.860Z,4.80
2022-07-29T17:51:51.696Z,4.95
2022-07-29T17:54:18.887Z,5.43
2022-07-29T17:56:45.751Z,5.17
2022-07-29T17:59:12.555Z,4.47
2022-07-29T18:01:41.404Z,5.25
2022-07-29T18:04:09.394Z,5.15
2022-07-29T18:06:36.320Z,4.50
2022-07-29T18:09:03.459Z,4.97
2022-07-29T18:11:32.499Z,4.82
2022-07-29T18:13:59.363Z,5.18
2022-07-29T18:16:29.479Z,4.82
2022-07-29T18:18:56.331Z,4.78
2022-07-29T18:21:43.419Z,4.70
2022-07-29T18:24:11.113Z,4.53
2022-07-29T18:26:38.553Z,5.53
2022-07-29T18:29:05.366Z,4.40
2022-07-29T18:31:36.154Z,5.13
2022-07-29T18:34:02.944Z,6.20
2022-07-29T18:36:29.741Z,5.90
2022-07-29T18:38:56.525Z,4.95
2022-07-29T18:41:23.371Z,5.53
2022-07-29T18:43:50.157Z,5.60
2022-07-29T18:46:17.010Z,5.60
2022-07-29T18:48:45.234Z,5.70
2022-07-29T18:51:12.052Z,7.97
2022-07-29T18:53:38.881Z,5.93
2022-07-29T18:56:05.694Z,5.72
2022-07-29T18:58:33.423Z,6.10
2022-07-29T19:01:00.802Z,5.45
2022-07-29T19:03:27.630Z,5.50
2022-07-29T19:05:54.487Z,6.53
2022-07-29T19:08:21.239Z,5.35
2022-07-29T19:10:48.003Z,6.03
2022-07-29T19:13:14.775Z,6.47
2022-07-29T19:15:41.539Z,6.47
2022-07-29T19:18:08.438Z,5.90
2022-07-29T19:20:35.975Z,6.40
2022-07-29T19:23:02.778Z,6.17
2022-07-29T19:25:29.580Z,6.10
2022-07-29T19:27:56.980Z,6.63
2022-07-29T19:30:23.759Z,5.93
2022-07-29T19:32:50.543Z,5.93
2022-07-29T19:35:31.576Z,6.37
2022-07-29T19:38:02.347Z,6.95
2022-07-29T19:40:29.762Z,5.97
2022-07-29T19:42:56.755Z,7.38
2022-07-29T19:45:26.944Z,6.00
2022-07-29T19:47:59.033Z,6.30
2022-07-29T19:50:28.138Z,5.80
2022-07-29T19:52:55.014Z,6.68
2022-07-29T19:55:23.383Z,6.57
2022-07-29T19:57:51.054Z,6.13
2022-07-29T20:00:20.943Z,6.50
2022-07-29T20:02:48.240Z,6.65
2022-07-29T20:05:15.111Z,6.50
2022-07-29T20:07:41.987Z,6.18
2022-07-29T20:10:09.899Z,6.13
2022-07-29T20:12:38.067Z,6.33
2022-07-29T20:15:07.112Z,6.40
2022-07-29T20:17:33.923Z,6.45
2022-07-29T20:20:07.849Z,6.72
2022-07-29T20:22:35.551Z,5.90
2022-07-29T20:25:02.471Z,6.27
2022-07-29T20:27:29.441Z,7.10
2022-07-29T20:29:56.235Z,6.20
2022-07-29T20:32:23.030Z,5.70
2022-07-29T20:34:49.843Z,6.45
2022-07-29T20:37:18.430Z,6.10
2022-07-29T20:39:47.890Z,6.03
2022-07-29T20:42:16.205Z,6.10
2022-07-29T20:44:42.991Z,6.32
2022-07-29T20:47:09.974Z,6.22
2022-07-29T20:49:37.083Z,5.43
2022-07-29T20:52:04.294Z,4.40
2022-07-29T20:54:31.211Z,3.53
2022-07-29T20:56:58.445Z,3.60
2022-07-29T20:59:25.566Z,3.05
2022-07-29T21:01:52.398Z,2.57
2022-07-29T21:04:20.267Z,3.50
2022-07-29T21:06:47.193Z,3.10
2022-07-29T21:09:14.039Z,2.78
2022-07-29T21:11:44.193Z,2.80
2022-07-29T21:14:28.199Z,2.60
2022-07-29T21:16:55.104Z,3.22
2022-07-29T21:19:22.023Z,3.50
2022-07-29T21:21:49.102Z,3.92
2022-07-29T21:24:15.881Z,3.72
2022-07-29T21:26:47.284Z,3.50
2022-07-29T21:29:21.318Z,3.38
2022-07-29T21:31:48.184Z,3.33
2022-07-29T21:34:15.539Z,3.35
2022-07-29T21:36:48.322Z,3.30
2022-07-29T21:39:15.450Z,3.53
2022-07-29T21:41:42.278Z,3.60
2022-07-29T21:44:09.143Z,3.60
2022-07-29T21:46:36.684Z,3.25
2022-07-29T21:49:03.966Z,3.72
2022-07-29T21:58:56.166Z,3.45
2022-07-29T22:01:24.145Z,3.78
2022-07-29T22:03:50.987Z,4.65
2022-07-29T22:06:18.420Z,4.27
2022-07-29T22:08:45.786Z,4.00
2022-07-29T22:11:13.297Z,3.85
2022-07-29T22:13:40.304Z,4.03
2022-07-29T22:16:07.546Z,4.10
2022-07-29T22:18:34.319Z,3.97
2022-07-29T22:21:01.357Z,4.20
2022-07-29T22:23:28.309Z,4.07
2022-07-29T22:25:55.050Z,3.92
2022-07-29T22:28:21.821Z,4.57
2022-07-29T22:30:48.754Z,4.50
2022-07-29T22:33:17.638Z,4.45
2022-07-29T22:35:45.310Z,4.55
2022-07-29T22:38:15.859Z,4.45
2022-07-29T22:40:42.664Z,4.38
2022-07-29T22:43:10.730Z,3.73
2022-07-29T22:45:37.736Z,4.65
2022-07-29T22:48:05.694Z,4.50
2022-07-29T22:50:32.784Z,4.20
2022-07-29T22:52:59.522Z,5.03
2022-07-29T22:55:26.328Z,4.80
2022-07-29T22:57:53.241Z,4.00
2022-07-29T23:00:19.981Z,4.47
2022-07-29T23:02:47.718Z,4.32
2022-07-29T23:05:15.850Z,4.65
2022-07-29T23:07:43.009Z,4.10
2022-07-29T23:10:10.154Z,4.13
2022-07-29T23:12:37.037Z,4.82
2022-07-29T23:15:05.441Z,4.10
2022-07-29T23:17:36.699Z,4.45
2022-07-29T23:20:06.773Z,3.83
2022-07-29T23:22:34.123Z,3.95
2022-07-29T23:25:00.938Z,4.00
2022-07-29T23:27:27.754Z,4.65
2022-07-29T23:29:54.659Z,3.80
2022-07-29T23:32:21.415Z,3.60
2022-07-29T23:34:48.276Z,3.60
2022-07-29T23:37:15.086Z,4.05
2022-07-29T23:39:41.831Z,4.10
2022-07-29T23:42:09.758Z,3.72
2022-07-29T23:44:36.592Z,3.63
2022-07-29T23:47:03.800Z,3.90
2022-07-29T23:49:30.993Z,3.70
2022-07-29T23:51:57.775Z,3.67
2022-07-29T23:54:24.638Z,3.83
2022-07-29T23:56:51.444Z,3.53
2022-07-29T23:59:18.342Z,3.38
